East Palestine, Ohio
Current Conditions -  °F | °C
As of 3:51 AM on Monday 22 Dec 2014 (Local Time) from KPIT Reporting Station
Scattered Clouds Scattered Clouds  
Wind Chill: 18°   Ceiling: Unl
Heat Index: 24°   Visibility: 7mi
Dew Point: 21°   Wind: 5mph
Humidity: 88%   Direction: 90°E
Pressure: 30.11"   Gusts: NA
Location:  40.83°N, 80.54°W
Report Text: KPIT 220851Z 09004KT 7SM SCT250 M04/M06 A3011 RMK AO2 SLP220 T10441061 58012
Loading
Personal Weather Stations






























Interactive Weather Map New forecast layout! Learn more

10-Day Weather Forecast

Advertisements
Track Severe Weather on mobile